Terminal Aerodrome Forecast
Issued by NWS Boston, MA

Home | Current Version | Previous Version | Text Only | Print | Product List | Glossary On
Versions: 1 2 3 4 5 6 7 8 9 10 11 12 13 14 15 16 17 18 19 20 21
000
FTUS41 KBOX 250548 AAA
TAFBDL
TAF AMD
KBDL 250548Z 2506/2612 VRB03KT P6SM VCSH BKN025 OVC070
     FM250700 13006KT P6SM -RA OVC025
     FM251000 08005KT 6SM -RA BR OVC008
     FM251200 09007KT 4SM -RA BR OVC010
     FM251500 08008KT 2SM RA BR OVC005
     FM252000 13007KT 2SM -RA BR OVC008
     FM260500 00000KT 5SM -RA BR OVC003
     FM260800 30003KT 5SM BR VCSH OVC008
     FM261100 31005KT P6SM BKN010=

USA.gov is the U.S. government's official web portal to all federal, state and local government web resources and services.